Time;durP1;ratioP1;P1;durP2;ratioP2;P2;SDS_P1;SDS_P2;PMS_P1;PMS_P2;Temp;Humidity;BMP_temperature;BMP_pressure;BME280_temperature;BME280_humidity;BME280_pressure;Samples;Min_cycle;Max_cycle;Signal;HPM_P1;HPM_P2
2020/12/02 00:00:37;;;;;;;53.50;30.33;;;0.90;94.30;;;;;;5072643;28;20477;-82
2020/12/02 00:03:09;;;;;;;54.27;30.37;;;0.90;93.40;;;;;;5075407;28;20451;-82
2020/12/02 00:05:36;;;;;;;48.53;29.63;;;0.80;93.40;;;;;;5074412;28;20619;-82
2020/12/02 00:08:08;;;;;;;54.97;32.67;;;0.90;94.70;;;;;;5076263;28;20472;-82
2020/12/02 00:10:35;;;;;;;49.53;29.40;;;0.90;94.40;;;;;;5069037;28;20461;-82
2020/12/02 00:13:03;;;;;;;60.97;29.67;;;0.90;95.10;;;;;;5076762;28;20476;-83
2020/12/02 00:15:30;;;;;;;58.73;29.87;;;0.90;94.50;;;;;;5088510;28;20486;-82
2020/12/02 00:17:57;;;;;;;47.90;29.10;;;1.00;94.60;;;;;;5084310;28;20455;-83
2020/12/02 00:20:24;;;;;;;55.10;29.87;;;0.80;94.50;;;;;;5080454;28;20515;-83
2020/12/02 00:22:51;;;;;;;57.60;30.07;;;0.80;95.80;;;;;;5076957;28;20460;-84
2020/12/02 00:25:18;;;;;;;54.57;30.03;;;0.70;95.60;;;;;;5072596;28;20451;-82
2020/12/02 00:27:44;;;;;;;49.43;29.40;;;0.80;95.40;;;;;;5079218;28;20474;-82
2020/12/02 00:30:13;;;;;;;55.60;30.37;;;0.70;96.70;;;;;;5077757;28;20540;-82
2020/12/02 00:32:44;;;;;;;51.80;29.03;;;0.70;97.50;;;;;;5076302;28;20541;-82
2020/12/02 00:35:15;;;;;;;60.57;32.23;;;0.60;97.80;;;;;;5069796;28;20481;-82
2020/12/02 00:37:41;;;;;;;58.43;31.17;;;0.60;99.10;;;;;;5067971;28;20468;-83
2020/12/02 00:40:09;;;;;;;59.23;31.30;;;0.60;99.90;;;;;;5088576;28;20450;-82
2020/12/02 00:42:35;;;;;;;63.20;32.43;;;0.50;99.90;;;;;;5090732;28;20472;-83
2020/12/02 00:45:03;;;;;;;59.70;30.90;;;0.50;99.90;;;;;;5088993;28;20494;-83
2020/12/02 00:47:30;;;;;;;58.00;30.00;;;0.40;99.90;;;;;;5076130;28;20461;-82
2020/12/02 00:49:57;;;;;;;63.87;31.27;;;0.40;99.90;;;;;;5068515;28;20510;-82
2020/12/02 00:52:25;;;;;;;63.57;31.60;;;0.40;99.90;;;;;;5071468;28;20445;-80
2020/12/02 00:54:52;;;;;;;66.03;32.37;;;0.40;99.90;;;;;;5076814;28;20545;-80
2020/12/02 00:57:22;;;;;;;57.60;30.50;;;0.30;99.90;;;;;;5069786;28;20486;-80
2020/12/02 00:59:52;;;;;;;73.77;32.80;;;0.20;99.90;;;;;;5069231;28;20534;-81
2020/12/02 01:02:28;;;;;;;73.60;33.57;;;0.10;99.90;;;;;;5076681;28;20455;-80
2020/12/02 01:04:54;;;;;;;75.67;33.30;;;0.00;99.90;;;;;;5071661;28;20492;-81
2020/12/02 01:07:21;;;;;;;67.73;33.90;;;0.00;99.90;;;;;;5078582;28;20498;-81
2020/12/02 01:09:51;;;;;;;80.77;36.43;;;0.00;99.90;;;;;;5075179;28;20504;-81
2020/12/02 01:12:18;;;;;;;69.00;33.67;;;0.10;99.90;;;;;;5074301;28;20453;-82
2020/12/02 01:14:45;;;;;;;85.40;35.60;;;0.10;99.90;;;;;;5071463;28;20462;-81
2020/12/02 01:17:13;;;;;;;86.50;37.63;;;0.10;99.90;;;;;;5070705;28;20461;-80
2020/12/02 01:19:40;;;;;;;69.80;33.13;;;0.20;99.90;;;;;;5070329;28;20461;-82
2020/12/02 01:22:13;;;;;;;70.20;34.73;;;0.10;99.90;;;;;;5075723;28;20468;-80
2020/12/02 01:24:48;;;;;;;78.33;35.90;;;0.10;99.90;;;;;;5078121;28;20484;-80
2020/12/02 01:27:21;;;;;;;72.87;33.90;;;0.20;99.90;;;;;;5067861;28;20447;-81
2020/12/02 01:29:49;;;;;;;69.07;34.53;;;0.20;99.90;;;;;;5077386;28;20469;-81
2020/12/02 01:32:16;;;;;;;65.03;33.00;;;0.00;99.90;;;;;;5088924;28;20488;-81
2020/12/02 01:34:47;;;;;;;70.83;35.17;;;0.00;99.90;;;;;;5090820;28;20517;-80
2020/12/02 01:37:31;;;;;;;78.17;36.47;;;-0.10;99.90;;;;;;5072842;28;20470;-80
2020/12/02 01:40:03;;;;;;;65.27;33.37;;;-0.10;99.90;;;;;;5082112;28;20551;-80
2020/12/02 01:42:31;;;;;;;69.70;35.80;;;-0.20;99.90;;;;;;5082793;28;20475;-80
2020/12/02 01:44:58;;;;;;;74.63;34.33;;;-0.20;99.90;;;;;;5075759;28;20509;-81
2020/12/02 01:47:43;;;;;;;73.07;33.40;;;-0.20;99.90;;;;;;5075366;28;20449;-81
2020/12/02 01:50:19;;;;;;;73.20;35.37;;;-0.20;99.90;;;;;;5075504;28;20986;-80
2020/12/02 01:52:56;;;;;;;69.27;35.87;;;-0.20;99.90;;;;;;5069596;28;21301;-80
2020/12/02 01:55:28;;;;;;;81.03;35.47;;;-0.30;99.90;;;;;;5071048;28;20453;-80
2020/12/02 01:58:00;;;;;;;70.17;34.40;;;-0.30;99.90;;;;;;5074429;28;20446;-81
2020/12/02 02:00:31;;;;;;;65.80;33.63;;;-0.20;99.90;;;;;;5079396;28;20461;-81
2020/12/02 02:03:02;;;;;;;66.77;36.57;;;-0.20;99.90;;;;;;5074916;28;20455;-81
2020/12/02 02:05:34;;;;;;;66.60;33.00;;;-0.10;99.90;;;;;;5076946;28;20454;-81
2020/12/02 02:08:01;;;;;;;72.37;34.87;;;0.00;99.90;;;;;;5075829;28;20547;-80
2020/12/02 02:10:31;;;;;;;71.50;31.57;;;0.20;99.90;;;;;;5078677;28;20983;-81
2020/12/02 02:13:28;;;;;;;68.47;35.73;;;0.10;99.90;;;;;;5081220;28;20446;-80
2020/12/02 02:15:57;;;;;;;65.77;32.93;;;0.20;99.90;;;;;;5077328;28;20489;-80
2020/12/02 02:18:26;;;;;;;67.50;32.90;;;0.30;99.90;;;;;;5079813;28;20469;-81
2020/12/02 02:20:56;;;;;;;68.20;32.47;;;0.30;99.90;;;;;;5078683;28;20459;-81
2020/12/02 02:23:22;;;;;;;70.60;33.13;;;0.40;99.90;;;;;;5078415;28;20578;-81
2020/12/02 02:26:10;;;;;;;63.10;33.10;;;0.30;99.90;;;;;;5078946;28;20479;-81
2020/12/02 02:28:41;;;;;;;66.90;32.70;;;0.40;99.90;;;;;;5078064;28;20470;-82
2020/12/02 02:31:12;;;;;;;67.77;34.30;;;0.30;99.10;;;;;;5078007;28;20505;-80
2020/12/02 02:33:40;;;;;;;64.70;31.47;;;0.40;99.90;;;;;;5068619;28;20800;-81
2020/12/02 02:36:10;;;;;;;58.10;33.10;;;0.40;99.80;;;;;;5074262;28;20474;-81
2020/12/02 02:38:36;;;;;;;68.37;33.40;;;0.30;98.60;;;;;;5070963;28;20451;-80
2020/12/02 02:41:04;;;;;;;64.20;32.70;;;0.40;98.50;;;;;;5072679;28;20557;-80
2020/12/02 02:43:30;;;;;;;55.90;32.17;;;0.40;98.20;;;;;;5075241;28;20456;-80
2020/12/02 02:45:58;;;;;;;61.73;33.27;;;0.50;97.30;;;;;;5078961;28;20931;-80
2020/12/02 02:48:25;;;;;;;61.17;31.80;;;0.40;97.60;;;;;;5070048;28;20442;-80
2020/12/02 02:50:52;;;;;;;62.03;32.80;;;0.40;97.20;;;;;;5085557;28;20475;-80
2020/12/02 02:53:21;;;;;;;60.60;32.30;;;0.60;98.20;;;;;;5077548;28;20514;-81
2020/12/02 02:55:49;;;;;;;55.13;32.93;;;0.60;96.80;;;;;;5085821;28;20460;-80
2020/12/02 02:58:17;;;;;;;58.10;32.13;;;0.60;96.20;;;;;;5086828;28;20443;-80
2020/12/02 03:00:43;;;;;;;56.83;31.73;;;0.60;95.50;;;;;;5083510;28;20471;-80
2020/12/02 03:03:12;;;;;;;54.67;32.77;;;0.60;96.10;;;;;;5090486;28;20437;-81
2020/12/02 03:05:39;;;;;;;54.33;31.00;;;0.70;96.30;;;;;;5078008;28;20453;-81
2020/12/02 03:08:08;;;;;;;52.00;29.00;;;0.80;95.70;;;;;;5080966;28;20442;-82
2020/12/02 03:10:39;;;;;;;59.60;32.73;;;0.80;92.80;;;;;;5080995;28;20534;-81
2020/12/02 03:13:07;;;;;;;54.80;30.10;;;0.90;93.30;;;;;;5090649;28;20442;-80
2020/12/02 03:15:35;;;;;;;53.77;30.23;;;0.80;92.80;;;;;;5079912;28;20445;-80
2020/12/02 03:18:08;;;;;;;49.37;29.80;;;0.80;92.90;;;;;;5085277;28;20453;-80
2020/12/02 03:20:40;;;;;;;52.60;30.33;;;0.80;92.60;;;;;;5075494;28;21046;-79
2020/12/02 03:23:11;;;;;;;48.37;30.10;;;0.90;92.50;;;;;;5078975;28;20460;-80
2020/12/02 03:25:39;;;;;;;51.90;30.57;;;0.90;91.80;;;;;;5071192;28;20457;-79
2020/12/02 03:28:06;;;;;;;46.00;29.60;;;0.90;91.60;;;;;;5077511;28;20445;-80
2020/12/02 03:30:33;;;;;;;45.53;28.20;;;0.90;92.10;;;;;;5074822;28;20502;-80
2020/12/02 03:33:00;;;;;;;47.03;27.97;;;1.00;92.40;;;;;;5071455;28;20437;-80
2020/12/02 03:35:27;;;;;;;47.17;28.90;;;0.40;91.20;;;;;;5060676;28;20438;-80
2020/12/02 03:37:54;;;;;;;52.97;29.90;;;1.00;91.40;;;;;;5066558;28;20486;-80
2020/12/02 03:40:20;;;;;;;45.00;30.07;;;1.00;91.30;;;;;;5076005;28;20457;-80
2020/12/02 03:42:47;;;;;;;48.63;29.67;;;1.00;91.80;;;;;;5070284;28;20447;-80
2020/12/02 03:45:16;;;;;;;49.47;29.40;;;0.80;91.30;;;;;;5069031;28;20541;-80
2020/12/02 03:47:43;;;;;;;46.83;28.17;;;0.80;91.60;;;;;;5072083;28;21047;-80
2020/12/02 03:50:12;;;;;;;51.50;30.27;;;0.80;92.10;;;;;;5071296;28;20488;-80
2020/12/02 03:52:38;;;;;;;52.40;30.40;;;0.80;92.20;;;;;;5070354;28;20479;-82
2020/12/02 03:55:06;;;;;;;46.17;29.90;;;0.70;92.40;;;;;;5079899;28;20476;-81
2020/12/02 03:57:35;;;;;;;50.53;28.87;;;0.60;93.00;;;;;;5071987;28;20479;-81
2020/12/02 04:00:01;;;;;;;51.90;30.00;;;0.60;93.40;;;;;;5073265;28;20548;-80
2020/12/02 04:02:29;;;;;;;57.70;34.37;;;0.70;93.80;;;;;;5066434;28;20522;-80
2020/12/02 04:04:56;;;;;;;53.47;31.37;;;0.60;93.70;;;;;;5072803;28;20488;-79
2020/12/02 04:07:23;;;;;;;47.73;29.30;;;0.70;93.90;;;;;;5069733;28;20523;-80
2020/12/02 04:09:49;;;;;;;51.87;30.00;;;0.50;94.40;;;;;;5073799;28;20729;-80
2020/12/02 04:12:15;;;;;;;49.07;29.40;;;0.60;94.60;;;;;;5072699;28;20470;-82
2020/12/02 04:14:42;;;;;;;52.97;30.60;;;0.60;93.80;;;;;;5087957;28;20569;-81
2020/12/02 04:17:08;;;;;;;53.53;30.67;;;0.60;94.00;;;;;;5071653;28;20463;-81
2020/12/02 04:19:35;;;;;;;50.73;31.00;;;0.70;93.60;;;;;;5071459;28;20485;-82
2020/12/02 04:22:02;;;;;;;55.90;30.03;;;0.80;93.30;;;;;;5071946;28;20481;-81
2020/12/02 04:24:29;;;;;;;49.53;30.20;;;0.70;93.10;;;;;;5071228;28;20445;-82
2020/12/02 04:26:55;;;;;;;47.50;29.80;;;0.70;91.80;;;;;;5074019;28;20893;-82
2020/12/02 04:29:21;;;;;;;48.40;28.53;;;0.80;91.90;;;;;;5069732;28;20530;-81
2020/12/02 04:31:48;;;;;;;50.00;28.13;;;0.80;91.10;;;;;;5078071;28;20475;-81
2020/12/02 04:34:14;;;;;;;42.33;27.20;;;0.90;91.50;;;;;;5074488;28;20818;-80
2020/12/02 04:36:40;;;;;;;47.73;30.20;;;0.90;90.30;;;;;;5078291;28;20478;-82
2020/12/02 04:39:08;;;;;;;44.27;27.03;;;0.90;90.40;;;;;;5078061;28;20503;-81
2020/12/02 04:41:34;;;;;;;46.17;28.40;;;0.90;89.90;;;;;;5075819;28;20529;-81
2020/12/02 04:44:01;;;;;;;43.40;28.20;;;0.90;89.60;;;;;;5081492;28;20506;-82
2020/12/02 04:46:31;;;;;;;44.00;28.10;;;0.90;90.20;;;;;;5087903;28;20456;-81
2020/12/02 04:49:01;;;;;;;49.50;30.10;;;;;;;;;;5072893;28;20457;-81
2020/12/02 04:51:28;;;;;;;46.40;28.70;;;0.90;91.30;;;;;;5082001;28;20513;-80
2020/12/02 04:53:58;;;;;;;47.83;29.20;;;0.90;91.40;;;;;;5076678;28;20522;-80
2020/12/02 04:56:26;;;;;;;50.27;28.30;;;1.00;92.10;;;;;;5071662;28;20445;-81
2020/12/02 04:58:55;;;;;;;50.83;29.40;;;0.90;91.80;;;;;;5078728;28;20482;-81
2020/12/02 05:01:23;;;;;;;51.73;29.80;;;0.80;91.20;;;;;;5074555;28;20550;-81
2020/12/02 05:03:54;;;;;;;45.37;28.90;;;0.70;92.30;;;;;;5076769;28;20543;-80
2020/12/02 05:06:27;;;;;;;51.67;32.33;;;0.70;92.80;;;;;;5066100;28;20454;-80
2020/12/02 05:09:06;;;;;;;48.80;30.00;;;0.70;92.80;;;;;;5067894;28;20455;-80
2020/12/02 05:11:35;;;;;;;48.37;29.63;;;0.60;93.90;;;;;;5076124;28;20475;-80
2020/12/02 05:14:03;;;;;;;48.53;31.33;;;0.40;95.50;;;;;;5076172;28;20505;-80
2020/12/02 05:16:30;;;;;;;51.37;30.53;;;0.50;96.00;;;;;;5070713;28;20445;-80
2020/12/02 05:19:02;;;;;;;53.07;31.97;;;0.60;95.00;;;;;;5073521;28;20459;-82
2020/12/02 05:21:40;;;;;;;51.83;30.90;;;0.60;94.40;;;;;;5076860;28;20467;-81
2020/12/02 05:24:11;;;;;;;53.20;30.10;;;0.70;93.60;;;;;;5075004;28;20448;-80
2020/12/02 05:26:42;;;;;;;50.13;29.83;;;0.70;93.00;;;;;;5073807;28;20457;-80
2020/12/02 05:29:37;;;;;;;48.77;31.53;;;0.70;92.70;;;;;;5075065;28;20470;-81
2020/12/02 05:32:12;;;;;;;54.70;31.17;;;0.70;92.80;;;;;;5069016;28;21031;-81
2020/12/02 05:34:38;;;;;;;48.53;29.00;;;0.70;91.90;;;;;;5068979;28;20453;-81
2020/12/02 05:37:09;;;;;;;51.73;30.60;;;0.70;91.00;;;;;;5085333;28;20455;-81
2020/12/02 05:39:47;;;;;;;52.97;30.90;;;0.90;91.70;;;;;;5077980;28;20506;-81
2020/12/02 05:42:23;;;;;;;44.73;26.53;;;0.80;90.90;;;;;;5079444;28;20467;-81
2020/12/02 05:44:58;;;;;;;43.40;25.20;;;0.80;91.00;;;;;;5076544;28;20489;-79
2020/12/02 05:47:24;;;;;;;41.77;24.93;;;0.80;88.70;;;;;;5071567;28;20536;-80
2020/12/02 05:49:54;;;;;;;40.60;25.93;;;0.80;86.00;;;;;;5082261;28;20449;-80
2020/12/02 05:52:25;;;;;;;38.10;23.23;;;0.90;85.10;;;;;;5080059;28;20458;-80
2020/12/02 05:54:58;;;;;;;34.93;22.50;;;0.70;83.30;;;;;;5086015;28;20539;-79
2020/12/02 05:57:26;;;;;;;42.30;24.00;;;0.80;83.20;;;;;;5078963;28;20454;-79
2020/12/02 05:59:56;;;;;;;38.10;23.30;;;0.70;81.90;;;;;;5071559;28;20475;-82
2020/12/02 06:02:24;;;;;;;43.30;25.30;;;0.80;82.50;;;;;;5070645;28;20901;-80
2020/12/02 06:04:53;;;;;;;39.60;24.63;;;0.70;83.40;;;;;;5074040;28;20453;-81
2020/12/02 06:07:21;;;;;;;39.67;23.03;;;0.70;83.40;;;;;;5072410;28;20566;-81
2020/12/02 06:09:49;;;;;;;39.53;23.57;;;0.70;83.30;;;;;;5074775;28;20453;-81
2020/12/02 06:12:18;;;;;;;38.93;23.57;;;0.80;83.70;;;;;;5075554;28;20456;-82
2020/12/02 06:14:46;;;;;;;42.40;25.87;;;0.90;83.50;;;;;;5078418;28;20516;-81
2020/12/02 06:17:29;;;;;;;43.57;26.70;;;0.80;83.30;;;;;;5079176;28;20551;-81
2020/12/02 06:19:56;;;;;;;39.73;24.13;;;0.90;83.10;;;;;;5076898;28;20458;-81
2020/12/02 06:22:39;;;;;;;49.90;26.03;;;0.80;82.90;;;;;;5074184;28;20468;-80
2020/12/02 06:25:30;;;;;;;42.30;25.40;;;0.80;82.20;;;;;;5080405;28;20478;-80
2020/12/02 06:27:56;;;;;;;40.83;25.40;;;0.80;82.80;;;;;;5075735;28;20456;-80
2020/12/02 06:30:23;;;;;;;41.90;24.43;;;0.90;82.80;;;;;;5077710;28;20465;-81
2020/12/02 06:33:14;;;;;;;44.80;26.53;;;0.80;82.80;;;;;;5074918;28;20491;-81
2020/12/02 06:35:41;;;;;;;48.27;27.83;;;0.80;82.00;;;;;;5078303;28;20457;-80
2020/12/02 06:38:31;;;;;;;43.33;26.00;;;0.80;82.20;;;;;;5072573;28;21053;-83
2020/12/02 06:41:25;;;;;;;42.67;26.07;;;0.80;82.50;;;;;;5072782;28;21020;-82
2020/12/02 06:43:56;;;;;;;42.33;24.37;;;0.60;81.70;;;;;;5077284;28;20456;-81
2020/12/02 06:46:43;;;;;;;45.83;24.77;;;0.50;81.90;;;;;;5076745;28;20963;-72
2020/12/02 06:49:10;;;;;;;40.40;23.70;;;0.50;84.00;;;;;;5067361;28;20537;-76
2020/12/02 06:51:37;;;;;;;46.70;25.27;;;0.60;82.10;;;;;;5067410;28;20483;-78
2020/12/02 06:54:04;;;;;;;46.03;26.80;;;0.60;82.80;;;;;;5064592;28;20932;-77
2020/12/02 06:56:30;;;;;;;44.20;25.20;;;0.70;83.00;;;;;;5074316;28;20935;-75
2020/12/02 06:59:01;;;;;;;45.63;25.50;;;0.80;83.60;;;;;;5062051;28;21256;-77
2020/12/02 07:01:28;;;;;;;47.90;25.97;;;0.70;81.60;;;;;;5063422;28;20508;-82
2020/12/02 07:04:00;;;;;;;43.63;24.80;;;0.70;81.80;;;;;;5060005;28;20505;-78
2020/12/02 07:06:28;;;;;;;49.67;26.63;;;0.60;81.30;;;;;;5066331;28;20445;-78
2020/12/02 07:09:03;;;;;;;48.73;26.07;;;0.50;82.50;;;;;;5065711;28;20456;-82
2020/12/02 07:11:29;;;;;;;47.00;25.70;;;0.40;83.00;;;;;;5070932;28;20514;-85
2020/12/02 07:14:13;;;;;;;52.80;28.33;;;0.50;83.00;;;;;;5085073;28;20500;-84
2020/12/02 07:16:40;;;;;;;47.70;26.77;;;0.40;83.70;;;;;;5084054;28;20447;-85
2020/12/02 07:19:14;;;;;;;50.07;26.83;;;0.60;83.50;;;;;;5085353;28;21144;-83
2020/12/02 07:21:47;;;;;;;47.37;24.70;;;0.60;84.00;;;;;;5084998;28;21032;-87
2020/12/02 07:24:18;;;;;;;47.73;26.10;;;0.60;82.40;;;;;;5079996;28;20484;-86
2020/12/02 07:26:44;;;;;;;46.60;25.87;;;0.60;83.40;;;;;;5075879;28;20452;-85
2020/12/02 07:29:15;;;;;;;44.23;23.97;;;0.50;82.30;;;;;;5085717;28;20455;-85
2020/12/02 07:31:42;;;;;;;46.50;24.77;;;0.50;82.90;;;;;;5081722;28;20484;-87
2020/12/02 07:34:14;;;;;;;37.90;24.27;;;0.60;83.40;;;;;;5080698;28;20446;-86
2020/12/02 07:36:41;;;;;;;46.73;25.53;;;0.60;82.70;;;;;;5072108;28;20488;-86
2020/12/02 07:39:14;;;;;;;36.80;23.43;;;0.80;82.10;;;;;;5080196;28;20526;-86
2020/12/02 07:41:50;;;;;;;45.50;24.70;;;0.60;82.00;;;;;;5080663;28;20472;-86
2020/12/02 07:44:20;;;;;;;44.30;25.60;;;0.60;82.20;;;;;;5079661;28;20450;-85
2020/12/02 07:46:49;;;;;;;42.40;24.27;;;0.70;81.90;;;;;;5074359;28;20465;-86
2020/12/02 07:49:18;;;;;;;45.87;24.93;;;0.60;81.40;;;;;;5078866;28;20460;-87
2020/12/02 07:51:49;;;;;;;37.87;21.03;;;0.60;81.30;;;;;;5075487;28;20454;-86
2020/12/02 07:57:03;;;;;;;39.37;21.73;;;0.40;81.30;;;;;;5068421;28;20454;-78
2020/12/02 07:59:32;;;;;;;36.13;22.03;;;0.40;81.20;;;;;;5066562;28;20791;-80
2020/12/02 08:02:09;;;;;;;44.67;23.23;;;0.40;82.10;;;;;;5075271;28;20465;-79
2020/12/02 08:04:51;;;;;;;42.60;23.47;;;0.30;81.00;;;;;;5070420;28;20458;-74
2020/12/02 08:07:19;;;;;;;41.27;22.63;;;0.10;84.40;;;;;;5077067;28;20445;-81
2020/12/02 08:09:49;;;;;;;35.23;20.27;;;0.20;82.10;;;;;;5082297;28;20496;-85
2020/12/02 08:12:18;;;;;;;38.10;20.27;;;0.30;81.40;;;;;;5082475;28;20449;-84
2020/12/02 08:14:48;;;;;;;37.30;21.63;;;0.30;80.60;;;;;;5079032;28;20480;-81
2020/12/02 08:17:19;;;;;;;32.67;19.33;;;0.40;81.10;;;;;;5080588;28;20455;-80
2020/12/02 08:19:48;;;;;;;35.40;21.23;;;0.40;81.00;;;;;;5066237;28;20458;-83
2020/12/02 08:22:27;;;;;;;34.97;21.00;;;0.50;80.40;;;;;;5072246;28;20496;-81
2020/12/02 08:25:21;;;;;;;34.03;19.80;;;0.10;79.80;;;;;;5064277;28;20546;-83
2020/12/02 08:27:51;;;;;;;40.20;20.90;;;0.10;79.50;;;;;;5073753;28;20451;-87
2020/12/02 08:30:22;;;;;;;36.53;19.00;;;0.00;79.70;;;;;;5077246;28;20495;-85
2020/12/02 08:32:54;;;;;;;39.30;20.70;;;0.00;79.90;;;;;;5082764;28;20531;-77
2020/12/02 08:35:27;;;;;;;38.60;20.67;;;0.10;80.00;;;;;;5089727;28;20515;-85
2020/12/02 08:37:56;;;;;;;40.60;21.43;;;0.10;78.50;;;;;;5075460;28;20544;-82
2020/12/02 08:40:39;;;;;;;38.83;20.57;;;0.30;79.70;;;;;;5079842;28;20479;-87
2020/12/02 08:43:24;;;;;;;35.30;20.67;;;0.30;77.50;;;;;;5085456;28;20459;-81
2020/12/02 08:46:01;;;;;;;34.03;20.10;;;0.30;76.80;;;;;;5077049;28;20485;-81
2020/12/02 08:48:29;;;;;;;32.53;21.80;;;0.20;75.60;;;;;;5076428;28;20511;-79
2020/12/02 08:50:55;;;;;;;32.53;19.80;;;0.00;74.80;;;;;;5070356;28;20222;-79
2020/12/02 08:53:28;;;;;;;32.67;18.90;;;0.00;75.10;;;;;;5079807;28;20840;-80
2020/12/02 08:55:56;;;;;;;29.37;18.10;;;0.30;75.30;;;;;;5070250;28;20463;-80
2020/12/02 08:58:23;;;;;;;31.00;18.63;;;0.30;75.50;;;;;;5073117;28;21023;-85
2020/12/02 09:00:51;;;;;;;35.22;22.40;;;0.40;75.00;;;;;;5074901;28;20454;-79
2020/12/02 09:03:19;;;;;;;30.67;18.80;;;0.60;75.20;;;;;;5070279;28;20281;-82
2020/12/02 09:05:45;;;;;;;30.27;21.90;;;0.60;73.60;;;;;;5076756;28;20446;-79
2020/12/02 09:08:12;;;;;;;33.10;22.80;;;0.60;73.50;;;;;;5065269;28;21139;-78
2020/12/02 09:10:39;;;;;;;33.83;19.50;;;0.50;73.30;;;;;;5066889;28;20392;-78
2020/12/02 09:13:06;;;;;;;33.33;19.50;;;0.50;73.30;;;;;;5060058;28;20290;-76
2020/12/02 09:15:33;;;;;;;32.40;21.98;;;0.20;72.70;;;;;;5072071;28;20458;-77
2020/12/02 09:18:00;;;;;;;32.70;23.17;;;0.50;73.30;;;;;;5072749;28;20456;-81
2020/12/02 09:20:27;;;;;;;28.77;20.85;;;0.50;73.10;;;;;;5073547;28;20454;-76
2020/12/02 09:22:54;;;;;;;30.85;21.67;;;0.60;72.80;;;;;;5077372;28;20954;-80
2020/12/02 09:25:22;;;;;;;28.50;17.90;;;0.60;72.30;;;;;;5074012;28;20204;-84
2020/12/02 09:27:49;;;;;;;30.57;17.63;;;0.30;71.10;;;;;;5077340;28;20450;-83
2020/12/02 09:30:17;;;;;;;27.10;16.13;;;0.30;71.60;;;;;;5081887;28;20544;-79
2020/12/02 09:32:44;;;;;;;32.88;22.48;;;0.40;71.50;;;;;;5088026;28;20445;-89
2020/12/02 09:35:18;;;;;;;31.53;19.40;;;0.70;72.40;;;;;;5092109;28;20203;-87
2020/12/02 09:37:45;;;;;;;30.73;17.57;;;0.70;71.60;;;;;;5092458;28;20459;-89
2020/12/02 09:40:14;;;;;;;29.87;17.00;;;0.30;71.40;;;;;;5085361;28;20877;-83
2020/12/02 09:43:02;;;;;;;28.37;17.00;;;0.10;70.70;;;;;;5090879;28;20499;-81
2020/12/02 09:45:47;;;;;;;31.50;17.67;;;0.40;71.30;;;;;;5082028;28;20463;-78
2020/12/02 09:48:16;;;;;;;29.13;17.00;;;0.50;70.70;;;;;;5091262;28;20741;-82
2020/12/02 09:50:43;;;;;;;30.53;17.63;;;0.40;70.20;;;;;;5076382;28;20496;-81
2020/12/02 09:53:18;;;;;;;32.17;20.43;;;0.50;70.30;;;;;;5082842;28;20438;-85
2020/12/02 09:55:45;;;;;;;31.13;17.57;;;0.70;70.10;;;;;;5078271;28;20449;-86
2020/12/02 09:58:12;;;;;;;31.02;19.80;;;0.80;69.50;;;;;;5073773;28;20467;-80
2020/12/02 10:00:40;;;;;;;33.60;20.13;;;0.50;69.10;;;;;;5077576;28;20201;-81
2020/12/02 10:03:41;;;;;;;29.73;18.40;;;0.60;69.10;;;;;;5081804;28;20457;-84
2020/12/02 10:06:45;;;;;;;39.67;20.00;;;0.70;69.50;;;;;;5080712;28;20487;-80
2020/12/02 10:09:49;;;;;;;30.93;18.27;;;0.60;69.00;;;;;;5070019;28;20496;-81
2020/12/02 10:12:25;;;;;;;31.20;17.27;;;0.60;69.00;;;;;;5077417;28;20587;-84
2020/12/02 10:15:03;;;;;;;31.83;18.37;;;0.30;68.60;;;;;;5085333;28;20470;-81
2020/12/02 10:17:56;;;;;;;35.03;23.50;;;0.60;69.30;;;;;;5075249;28;20443;-80
2020/12/02 10:20:31;;;;;;;32.40;19.50;;;0.70;69.80;;;;;;5069287;28;20330;-78
2020/12/02 10:23:16;;;;;;;31.77;18.67;;;0.50;69.50;;;;;;5077065;28;20878;-87
2020/12/02 10:26:08;;;;;;;33.10;20.10;;;0.60;69.20;;;;;;5074415;28;20464;-87
2020/12/02 10:28:42;;;;;;;34.95;21.50;;;0.70;69.70;;;;;;5077970;28;20481;-81
2020/12/02 10:31:19;;;;;;;30.40;18.90;;;0.50;69.20;;;;;;5079407;28;20489;-89
2020/12/02 10:34:09;;;;;;;28.87;19.10;;;0.40;68.50;;;;;;5073048;28;20453;-84
2020/12/02 10:36:39;;;;;;;35.87;18.97;;;0.60;68.70;;;;;;5075883;28;20824;-80
2020/12/02 10:39:11;;;;;;;31.95;21.15;;;0.80;68.50;;;;;;5074608;28;20473;-79
2020/12/02 10:41:55;;;;;;;35.60;20.83;;;0.80;67.80;;;;;;5072310;28;20212;-81
2020/12/02 10:44:43;;;;;;;32.60;20.97;;;0.50;66.50;;;;;;5068318;28;20839;-82
2020/12/02 10:47:42;;;;;;;31.70;20.00;;;0.70;67.00;;;;;;5071512;28;20461;-79
2020/12/02 10:50:10;;;;;;;31.90;20.07;;;1.00;66.90;;;;;;5066861;28;20572;-80
2020/12/02 10:52:39;;;;;;;30.00;18.97;;;1.20;67.00;;;;;;5057779;28;20460;-78
2020/12/02 10:55:12;;;;;;;33.30;19.93;;;0.70;65.90;;;;;;5064222;28;20446;-77
2020/12/02 10:57:41;;;;;;;34.77;19.17;;;0.70;66.00;;;;;;5080643;28;20463;-86
2020/12/02 11:00:11;;;;;;;37.13;19.60;;;0.80;67.20;;;;;;5084003;28;20500;-84
2020/12/02 11:02:43;;;;;;;36.50;20.27;;;0.70;66.50;;;;;;5084394;28;20494;-84
2020/12/02 11:05:10;;;;;;;36.13;20.10;;;0.60;66.70;;;;;;5084105;28;20445;-82
2020/12/02 11:07:44;;;;;;;30.40;19.50;;;0.30;66.40;;;;;;5088537;28;20473;-83
2020/12/02 11:10:18;;;;;;;33.47;19.57;;;0.30;66.90;;;;;;5083995;28;20827;-84
2020/12/02 11:13:08;;;;;;;34.30;19.80;;;0.60;67.70;;;;;;5070770;28;20429;-86
2020/12/02 11:15:55;;;;;;;38.67;20.80;;;0.60;67.60;;;;;;5084063;28;20458;-84
2020/12/02 11:18:44;;;;;;;31.60;21.67;;;0.70;67.40;;;;;;5090869;28;20964;-84
2020/12/02 11:21:23;;;;;;;35.10;21.20;;;0.50;66.60;;;;;;5092285;28;20469;-82
2020/12/02 11:24:14;;;;;;;33.43;21.00;;;0.50;66.80;;;;;;5084912;28;20481;-81
2020/12/02 11:26:42;;;;;;;34.87;20.40;;;0.70;67.00;;;;;;5090748;28;20474;-84
2020/12/02 11:29:13;;;;;;;32.37;20.63;;;0.70;66.80;;;;;;5082492;28;20570;-82
2020/12/02 11:32:01;;;;;;;32.20;20.33;;;0.70;66.80;;;;;;5086528;28;20456;-83
2020/12/02 11:34:47;;;;;;;33.70;20.63;;;0.90;67.50;;;;;;5081107;28;20457;-83
2020/12/02 11:37:22;;;;;;;32.10;20.33;;;0.90;66.80;;;;;;5074591;28;20599;-83
2020/12/02 11:40:03;;;;;;;33.80;20.73;;;1.00;66.40;;;;;;5078505;28;20545;-84
2020/12/02 11:42:43;;;;;;;32.60;21.27;;;0.70;65.20;;;;;;5084441;28;20619;-82
2020/12/02 11:45:17;;;;;;;31.70;20.77;;;0.80;65.60;;;;;;5081802;28;20532;-83
2020/12/02 11:48:00;;;;;;;29.00;19.83;;;0.80;65.20;;;;;;5088082;28;20569;-85
2020/12/02 11:50:30;;;;;;;30.37;19.80;;;0.70;64.90;;;;;;5082331;28;20779;-83
2020/12/02 11:53:11;;;;;;;37.37;22.87;;;0.50;65.30;;;;;;5076047;28;20443;-83
2020/12/02 11:55:38;;;;;;;33.10;21.23;;;0.80;66.10;;;;;;5077370;28;20489;-82
2020/12/02 11:58:09;;;;;;;28.43;19.77;;;1.10;66.40;;;;;;5076408;28;20451;-82
2020/12/02 12:00:36;;;;;;;29.57;19.57;;;1.20;65.80;;;;;;5075252;28;21222;-84
2020/12/02 12:03:27;;;;;;;26.67;19.57;;;1.20;65.10;;;;;;5079517;28;20485;-82
2020/12/02 12:06:05;;;;;;;28.90;20.63;;;1.20;65.00;;;;;;5075515;28;20482;-83
2020/12/02 12:08:45;;;;;;;25.53;18.73;;;1.20;65.10;;;;;;5074984;28;20959;-82
2020/12/02 12:11:21;;;;;;;33.83;21.40;;;1.10;64.70;;;;;;5081770;28;20457;-81
2020/12/02 12:13:54;;;;;;;25.03;18.70;;;1.10;64.60;;;;;;5078864;28;20452;-83
2020/12/02 12:16:29;;;;;;;27.30;18.50;;;0.90;64.20;;;;;;5082604;28;20451;-83
2020/12/02 12:19:01;;;;;;;30.80;19.47;;;0.90;63.60;;;;;;5078096;28;20458;-81
2020/12/02 12:21:34;;;;;;;31.80;20.67;;;1.00;64.50;;;;;;5072973;28;20493;-82
2020/12/02 12:24:07;;;;;;;26.63;17.57;;;1.10;64.10;;;;;;5083648;28;20450;-83
2020/12/02 12:26:39;;;;;;;28.10;19.47;;;0.60;62.70;;;;;;5075928;28;20464;-85
2020/12/02 12:29:08;;;;;;;27.43;18.40;;;0.70;63.10;;;;;;5083721;28;20504;-84
2020/12/02 12:31:40;;;;;;;27.53;19.20;;;0.70;62.60;;;;;;5081797;28;20453;-81
2020/12/02 12:34:19;;;;;;;28.33;19.20;;;0.70;63.00;;;;;;5076601;28;20456;-84
2020/12/02 12:36:51;;;;;;;30.40;20.27;;;0.70;62.30;;;;;;5084236;28;20467;-84
2020/12/02 12:39:27;;;;;;;28.90;20.30;;;0.70;62.30;;;;;;5084141;28;20946;-81
2020/12/02 12:41:55;;;;;;;24.03;19.07;;;0.40;62.30;;;;;;5077014;28;20465;-81
2020/12/02 12:44:32;;;;;;;29.10;20.23;;;0.30;63.00;;;;;;5083687;28;20950;-82
2020/12/02 12:47:14;;;;;;;25.70;18.40;;;0.50;63.30;;;;;;5083021;28;20539;-83
2020/12/02 12:49:41;;;;;;;26.90;19.23;;;0.40;63.80;;;;;;5078139;28;20453;-81
2020/12/02 12:52:12;;;;;;;30.10;20.87;;;0.40;63.70;;;;;;5089179;28;20428;-85
2020/12/02 12:54:41;;;;;;;29.50;20.37;;;0.50;63.60;;;;;;5092330;28;20595;-86
2020/12/02 12:57:12;;;;;;;25.83;19.23;;;0.60;64.20;;;;;;5085345;28;21039;-83
2020/12/02 12:59:42;;;;;;;27.50;20.57;;;0.60;63.60;;;;;;5086966;28;20559;-82
2020/12/02 13:02:21;;;;;;;24.50;17.63;;;0.30;63.20;;;;;;5078797;28;20483;-84